Time;durP1;ratioP1;P1;durP2;ratioP2;P2;SDS_P1;SDS_P2;PMS_P1;PMS_P2;Temp;Humidity;BMP_temperature;BMP_pressure;BME280_temperature;BME280_humidity;BME280_pressure;Samples;Min_cycle;Max_cycle;Signal;HPM_P1;HPM_P2
2021/12/15 00:05:13;;;;;;;109.72;58.17;;;;;;;;;;4376216;32;20100;-73
2021/12/15 00:07:48;;;;;;;112.82;57.72;;;;;;;;;;4377267;32;20066;-73
2021/12/15 00:10:51;;;;;;;108.90;58.15;;;;;;;;;;4376547;32;20039;-74
2021/12/15 00:13:21;;;;;;;105.63;56.58;;;;;;;;;;4358954;32;20039;-74
2021/12/15 00:15:47;;;;;;;110.18;59.35;;;;;;;;;;4362675;32;20027;-73
2021/12/15 00:18:12;;;;;;;;;;;;;;;;;;4363087;32;20050;-74
2021/12/15 00:20:38;;;;;;;108.03;57.08;;;;;;;;;;4376511;32;19969;-74
2021/12/15 00:23:03;;;;;;;;;;;;;;;;;;4363284;32;20188;-73
2021/12/15 00:25:30;;;;;;;109.25;59.70;;;;;;;;;;4376558;32;20256;-74
2021/12/15 00:28:19;;;;;;;101.62;58.20;;;;;;;;;;4376871;32;20471;-74
2021/12/15 00:30:44;;;;;;;108.95;56.42;;;;;;;;;;4367452;32;20088;-74
2021/12/15 00:33:19;;;;;;;;;;;;;;;;;;4363056;32;20035;-74
2021/12/15 00:35:44;;;;;;;107.18;58.72;;;;;;;;;;4363017;32;19964;-73
2021/12/15 00:38:12;;;;;;;;;;;;;;;;;;4376379;32;20384;-74
2021/12/15 00:40:46;;;;;;;;;;;;;;;;;;4376944;32;20311;-74
2021/12/15 00:43:14;;;;;;;103.70;56.28;;;;;;;;;;4362849;32;19942;-74
2021/12/15 00:45:41;;;;;;;100.05;55.60;;;;;;;;;;4376832;32;20057;-74
2021/12/15 00:48:07;;;;;;;100.00;55.92;;;;;;;;;;4376164;32;20053;-74
2021/12/15 00:50:32;;;;;;;;;;;;;;;;;;4363256;32;20054;-74
2021/12/15 00:53:37;;;;;;;92.53;55.60;;;;;;;;;;4376949;32;19934;-74
2021/12/15 00:56:03;;;;;;;94.68;53.75;;;;;;;;;;4361312;32;20245;-74
2021/12/15 00:59:49;;;;;;;98.03;55.78;;;;;;;;;;4372552;32;20137;-74
2021/12/15 01:01:53;;;;;;;94.68;53.87;;;;;;;;;;4297161;33;20099;-73
2021/12/15 01:04:38;;;;;;;103.32;56.85;;;;;;;;;;4297761;33;20103;-74
2021/12/15 01:07:05;;;;;;;109.78;56.65;;;;;;;;;;4316772;33;20107;-74
2021/12/15 01:09:54;;;;;;;100.62;54.63;;;;;;;;;;4349100;32;20030;-74
2021/12/15 01:20:37;;;;;;;89.78;52.40;;;;;;;;;;4367829;32;20110;-74
2021/12/15 01:23:15;;;;;;;93.37;52.15;;;;;;;;;;4375696;32;20432;-74
2021/12/15 01:26:03;;;;;;;94.72;52.08;;;;;;;;;;4377516;32;20380;-73
2021/12/15 01:28:41;;;;;;;96.63;53.63;;;;;;;;;;4366034;32;20034;-74
2021/12/15 01:31:20;;;;;;;;;;;;;;;;;;;;;
2021/12/15 01:36:37;;;;;;;91.18;54.08;;;;;;;;;;4376218;32;20057;-74
2021/12/15 01:39:03;;;;;;;94.07;52.05;;;;;;;;;;4375770;32;20038;-74
2021/12/15 01:41:29;;;;;;;94.80;51.13;;;;;;;;;;4376049;32;20091;-74
2021/12/15 01:47:12;;;;;;;103.18;53.87;;;;;;;;;;4368561;32;19934;-74
2021/12/15 01:49:49;;;;;;;98.18;54.80;;;;;;;;;;4374086;32;20515;-74
2021/12/15 01:52:20;;;;;;;94.35;53.45;;;;;;;;;;4376027;32;20035;-73
2021/12/15 01:55:04;;;;;;;101.40;54.15;;;;;;;;;;4375753;32;20479;-74
2021/12/15 01:57:34;;;;;;;101.82;55.25;;;;;;;;;;4375215;32;20087;-74
2021/12/15 02:00:32;;;;;;;96.45;55.15;;;;;;;;;;4375293;32;20068;-74
2021/12/15 02:03:09;;;;;;;93.75;53.92;;;;;;;;;;4328777;33;20071;-74
2021/12/15 02:05:34;;;;;;;102.97;55.22;;;;;;;;;;4375354;32;20039;-74
2021/12/15 02:08:01;;;;;;;;;;;;;;;;;;4375040;32;20338;-74
2021/12/15 02:10:35;;;;;;;95.32;53.87;;;;;;;;;;4375687;32;19972;-74
2021/12/15 02:13:16;;;;;;;93.05;52.72;;;;;;;;;;4374879;32;20117;-74
2021/12/15 02:16:05;;;;;;;93.20;50.17;;;;;;;;;;4375118;32;20035;-74
2021/12/15 02:18:32;;;;;;;93.57;52.47;;;;;;;;;;4363244;32;20034;-74
2021/12/15 02:21:08;;;;;;;95.57;52.60;;;;;;;;;;4361192;32;20395;-74
2021/12/15 02:23:39;;;;;;;90.22;50.92;;;;;;;;;;4375546;32;20098;-74
2021/12/15 02:26:16;;;;;;;95.38;50.80;;;;;;;;;;4364761;32;20038;-74
2021/12/15 02:28:46;;;;;;;90.32;51.90;;;;;;;;;;4375144;32;20097;-74
2021/12/15 02:39:11;;;;;;;91.40;50.65;;;;;;;;;;4374981;32;20045;-74
2021/12/15 02:54:00;;;;;;;93.72;49.80;;;;;;;;;;4376324;32;20263;-74
2021/12/15 02:59:54;;;;;;;89.85;47.67;;;;;;;;;;4301688;33;20048;-73
2021/12/15 03:02:51;;;;;;;;;;;;;;;;;;;;;
2021/12/15 03:05:13;;;;;;;91.22;49.45;;;;;;;;;;4350048;32;20096;-74
2021/12/15 03:08:00;;;;;;;91.78;49.80;;;;;;;;;;4363632;32;20455;-74
2021/12/15 03:16:17;;;;;;;85.93;48.22;;;;;;;;;;4377858;32;20069;-74
2021/12/15 03:18:43;;;;;;;94.50;51.40;;;;;;;;;;4377560;32;20054;-73
2021/12/15 03:21:29;;;;;;;;;;;;;;;;;;4377563;32;20104;-73
2021/12/15 03:36:39;;;;;;;91.43;48.58;;;;;;;;;;4377955;32;20045;-74
2021/12/15 03:39:17;;;;;;;;;;;;;;;;;;;;;
2021/12/15 03:41:43;;;;;;;96.32;53.17;;;;;;;;;;4370655;32;20039;-74
2021/12/15 03:44:20;;;;;;;;;;;;;;;;;;4376975;32;20467;-74
2021/12/15 03:46:49;;;;;;;93.57;52.33;;;;;;;;;;4377942;32;19954;-74
2021/12/15 03:52:25;;;;;;;;;;;;;;;;;;;;;
2021/12/15 03:54:51;;;;;;;94.40;49.88;;;;;;;;;;4358779;32;20057;-74
2021/12/15 04:03:46;;;;;;;93.53;49.95;;;;;;;;;;4376412;32;20061;-74
2021/12/15 04:09:19;;;;;;;84.68;47.67;;;;;;;;;;4275103;33;20040;-74
2021/12/15 04:11:59;;;;;;;86.30;50.03;;;;;;;;;;4363079;32;20065;-74
2021/12/15 04:14:29;;;;;;;91.15;49.47;;;;;;;;;;4359882;33;20023;-74
2021/12/15 04:17:17;;;;;;;87.32;47.38;;;;;;;;;;4361398;32;20054;-73
2021/12/15 04:20:00;;;;;;;95.12;50.28;;;;;;;;;;4348385;33;20023;-74
2021/12/15 04:22:26;;;;;;;89.93;49.97;;;;;;;;;;4348591;32;20050;-74
2021/12/15 04:24:51;;;;;;;;;;;;;;;;;;4370902;32;20097;-74
2021/12/15 04:27:16;;;;;;;88.50;46.55;;;;;;;;;;4361254;33;19950;-74
2021/12/15 04:29:44;;;;;;;;;;;;;;;;;;4361651;32;20023;-74
2021/12/15 04:32:15;;;;;;;88.10;47.85;;;;;;;;;;4360713;32;19998;-74
2021/12/15 04:34:49;;;;;;;96.82;50.38;;;;;;;;;;4362033;32;20023;-74
2021/12/15 04:37:20;;;;;;;98.82;54.05;;;;;;;;;;4361318;32;20046;-74
2021/12/15 04:39:46;;;;;;;111.45;54.88;;;;;;;;;;4347537;33;20047;-74
2021/12/15 04:42:25;;;;;;;;;;;;;;;;;;;;;
2021/12/15 04:45:02;;;;;;;;;;;;;;;;;;;;;
2021/12/15 04:47:28;;;;;;;94.82;51.05;;;;;;;;;;4358875;33;20424;-74
2021/12/15 04:49:53;;;;;;;;;;;;;;;;;;4347839;33;20409;-74
2021/12/15 04:52:21;;;;;;;94.55;50.50;;;;;;;;;;4361016;32;19938;-74
2021/12/15 04:54:49;;;;;;;94.55;50.28;;;;;;;;;;4361567;32;20046;-74
2021/12/15 04:57:17;;;;;;;104.68;53.15;;;;;;;;;;4360663;32;20409;-74
2021/12/15 04:59:57;;;;;;;98.75;52.97;;;;;;;;;;4360640;32;20032;-74
2021/12/15 05:02:23;;;;;;;98.55;54.22;;;;;;;;;;4361570;32;20024;-73
2021/12/15 05:04:54;;;;;;;;;;;;;;;;;;4361055;32;20101;-74
2021/12/15 05:07:20;;;;;;;100.03;52.20;;;;;;;;;;4373009;32;19942;-74
2021/12/15 05:09:49;;;;;;;;;;;;;;;;;;4375706;32;20483;-74
2021/12/15 05:12:34;;;;;;;;;;;;;;;;;;;;;
2021/12/15 05:15:00;;;;;;;103.18;54.53;;;;;;;;;;4376056;32;20031;-74
2021/12/15 05:20:17;;;;;;;102.30;50.65;;;;;;;;;;4329699;33;19954;-73
2021/12/15 05:22:42;;;;;;;107.68;52.78;;;;;;;;;;4369254;32;20439;-74
2021/12/15 05:25:07;;;;;;;;;;;;;;;;;;4376165;32;20058;-74
2021/12/15 05:27:32;;;;;;;103.70;52.50;;;;;;;;;;4375823;32;19994;-74
2021/12/15 05:29:58;;;;;;;;;;;;;;;;;;4376843;32;20042;-74
2021/12/15 05:32:51;;;;;;;120.43;55.33;;;;;;;;;;4375430;32;19938;-75
2021/12/15 05:35:58;;;;;;;110.43;51.58;;;;;;;;;;4360883;32;20023;-73
2021/12/15 05:38:27;;;;;;;122.90;55.10;;;;;;;;;;4365614;32;20022;-74
2021/12/15 05:40:57;;;;;;;122.45;54.58;;;;;;;;;;4362234;32;20419;-74
2021/12/15 05:43:26;;;;;;;122.32;57.00;;;;;;;;;;4375392;32;20397;-74
2021/12/15 05:45:51;;;;;;;117.80;52.70;;;;;;;;;;4375396;32;20023;-75
2021/12/15 05:48:17;;;;;;;;;;;;;;;;;;4375450;32;20056;-73
2021/12/15 05:53:57;;;;;;;120.10;52.80;;;;;;;;;;4374656;32;20092;-73
2021/12/15 05:56:23;;;;;;;118.62;51.35;;;;;;;;;;4376612;32;20076;-73
2021/12/15 05:58:48;;;;;;;;;;;;;;;;;;4375344;32;20413;-74
2021/12/15 06:01:14;;;;;;;122.00;54.30;;;;;;;;;;4375111;32;19948;-73
2021/12/15 06:03:41;;;;;;;;;;;;;;;;;;4375207;32;20031;-73
2021/12/15 06:06:51;;;;;;;117.80;52.15;;;;;;;;;;4375041;32;19946;-74
2021/12/15 06:08:54;;;;;;;118.00;50.92;;;;;;;;;;4369379;32;20070;-73
2021/12/15 06:11:20;;;;;;;121.55;54.08;;;;;;;;;;4375035;32;20035;-74
2021/12/15 06:13:47;;;;;;;;;;;;;;;;;;4375367;32;20019;-74
2021/12/15 06:16:14;;;;;;;131.07;51.53;;;;;;;;;;4374950;32;19996;-74
2021/12/15 06:22:14;;;;;;;119.28;52.10;;;;;;;;;;4284769;33;20124;-73
2021/12/15 06:24:39;;;;;;;124.75;51.05;;;;;;;;;;4284747;33;20085;-74
2021/12/15 06:27:37;;;;;;;;;;;;;;;;;;4285434;33;20028;-73
2021/12/15 06:32:41;;;;;;;131.07;52.05;;;;;;;;;;4275358;33;20020;-75
2021/12/15 06:35:07;;;;;;;;;;;;;;;;;;4332055;33;20086;-75
2021/12/15 06:40:44;;;;;;;;;;;;;;;;;;;;;
2021/12/15 06:43:19;;;;;;;127.03;50.63;;;;;;;;;;4299092;33;20028;-77
2021/12/15 06:46:13;;;;;;;;;;;;;;;;;;;;;
2021/12/15 07:03:11;;;;;;;123.87;52.13;;;;;;;;;;4365009;32;20049;-74
2021/12/15 07:05:36;;;;;;;;;;;;;;;;;;4377435;32;20030;-74
2021/12/15 07:08:03;;;;;;;123.68;56.88;;;;;;;;;;4376952;32;20283;-74
2021/12/15 07:10:56;;;;;;;129.20;57.15;;;;;;;;;;4377174;32;20101;-74
2021/12/15 07:13:22;;;;;;;117.30;54.45;;;;;;;;;;4371718;32;20015;-75
2021/12/15 07:15:47;;;;;;;;;;;;;;;;;;4377816;32;20080;-75
2021/12/15 07:18:25;;;;;;;127.03;53.22;;;;;;;;;;4377088;32;20295;-74
2021/12/15 07:20:52;;;;;;;117.78;54.58;;;;;;;;;;4378433;32;20369;-74
2021/12/15 07:23:27;;;;;;;;;;;;;;;;;;;;;
2021/12/15 07:26:09;;;;;;;131.00;55.95;;;;;;;;;;4375308;32;19960;-75
2021/12/15 07:29:29;;;;;;;126.57;53.13;;;;;;;;;;4377018;32;20062;-74
2021/12/15 07:31:57;;;;;;;118.53;53.60;;;;;;;;;;4374178;32;20097;-75
2021/12/15 07:34:23;;;;;;;131.43;55.25;;;;;;;;;;4376520;32;20039;-75
2021/12/15 07:36:50;;;;;;;;;;;;;;;;;;4377531;32;20026;-74
2021/12/15 07:39:16;;;;;;;;;;;;;;;;;;4376714;32;19942;-75
2021/12/15 07:41:51;;;;;;;114.15;50.83;;;;;;;;;;4362589;32;19930;-75
2021/12/15 07:44:36;;;;;;;110.07;51.40;;;;;;;;;;4376695;32;20030;-74
2021/12/15 07:47:10;;;;;;;124.93;56.25;;;;;;;;;;4377469;32;20446;-74
2021/12/15 07:49:35;;;;;;;128.55;53.92;;;;;;;;;;4377442;32;20019;-74
2021/12/15 07:52:03;;;;;;;;;;;;;;;;;;4377615;32;20053;-74
2021/12/15 07:54:36;;;;;;;123.80;53.35;;;;;;;;;;4376516;32;19938;-74
2021/12/15 07:57:03;;;;;;;128.07;55.22;;;;;;;;;;4363953;32;20007;-75
2021/12/15 07:59:37;;;;;;;122.68;53.38;;;;;;;;;;4376406;32;20070;-74
2021/12/15 08:02:05;;;;;;;120.37;54.15;;;;;;;;;;4377058;32;20145;-74
2021/12/15 08:04:33;;;;;;;112.62;51.25;;;;;;;;;;4377055;32;20027;-74
2021/12/15 08:07:02;;;;;;;120.50;53.05;;;;;;;;;;4375283;32;20139;-74
2021/12/15 08:09:54;;;;;;;122.47;52.42;;;;;;;;;;4363413;32;20057;-74
2021/12/15 08:12:19;;;;;;;118.68;53.25;;;;;;;;;;4373532;32;20425;-74
2021/12/15 08:14:44;;;;;;;;;;;;;;;;;;4363031;32;20092;-75
2021/12/15 08:17:10;;;;;;;109.47;50.08;;;;;;;;;;4376439;32;19948;-74
2021/12/15 08:19:45;;;;;;;;;;;;;;;;;;;;;
2021/12/15 08:22:11;;;;;;;120.97;52.15;;;;;;;;;;4362057;33;19934;-74
2021/12/15 08:24:36;;;;;;;;;;;;;;;;;;4362191;32;20046;-74
2021/12/15 08:27:01;;;;;;;125.75;49.60;;;;;;;;;;4366747;32;20311;-74
2021/12/15 08:29:36;;;;;;;;;;;;;;;;;;4376744;32;20031;-73
2021/12/15 08:32:01;;;;;;;116.18;49.05;;;;;;;;;;4376811;32;20316;-74
2021/12/15 08:37:37;;;;;;;109.72;47.40;;;;;;;;;;4376600;32;19929;-74
2021/12/15 08:40:23;;;;;;;99.47;44.95;;;;;;;;;;4354063;32;20049;-74
2021/12/15 08:43:08;;;;;;;;;;;;;;;;;;;;;
2021/12/15 08:45:37;;;;;;;106.12;46.75;;;;;;;;;;4376953;32;20062;-74
2021/12/15 08:48:09;;;;;;;89.60;43.00;;;;;;;;;;4374417;32;20045;-74
2021/12/15 08:50:42;;;;;;;95.30;45.50;;;;;;;;;;4376412;32;20018;-74
2021/12/15 08:56:34;;;;;;;92.28;44.60;;;;;;;;;;4376339;32;20042;-74
2021/12/15 08:58:59;;;;;;;93.03;45.33;;;;;;;;;;4376112;32;20022;-74
2021/12/15 09:01:24;;;;;;;;;;;;;;;;;;4376668;32;20018;-74
2021/12/15 09:03:51;;;;;;;100.03;43.63;;;;;;;;;;4376148;32;20240;-73
2021/12/15 09:07:01;;;;;;;87.55;42.62;;;;;;;;;;4375839;32;20031;-74
2021/12/15 09:09:13;;;;;;;86.05;42.95;;;;;;;;;;4370581;32;20035;-74
2021/12/15 09:12:05;;;;;;;80.43;43.97;;;;;;;;;;4433359;32;20034;-74
2021/12/15 09:14:30;;;;;;;91.05;40.53;;;;;;;;;;4405384;32;20022;-74
2021/12/15 09:16:56;;;;;;;;;;;;;;;;;;4419001;32;20386;-74
2021/12/15 09:19:30;;;;;;;78.60;40.05;;;;;;;;;;4417060;32;19963;-74
2021/12/15 09:21:57;;;;;;;73.47;39.53;;;;;;;;;;4419824;32;20081;-74
2021/12/15 09:24:22;;;;;;;86.68;41.35;;;;;;;;;;4418350;32;20128;-74
2021/12/15 09:26:47;;;;;;;;;;;;;;;;;;4414929;32;20027;-75
2021/12/15 09:29:56;;;;;;;69.75;37.90;;;;;;;;;;4403438;32;19985;-75
2021/12/15 09:35:18;;;;;;;67.05;34.83;;;;;;;;;;4413902;32;20101;-74
2021/12/15 09:37:44;;;;;;;66.75;34.75;;;;;;;;;;4416111;32;20023;-74
2021/12/15 09:43:05;;;;;;;71.18;34.72;;;;;;;;;;4418795;32;19997;-75
2021/12/15 09:45:46;;;;;;;58.47;32.47;;;;;;;;;;4418696;32;20057;-74
2021/12/15 09:57:16;;;;;;;47.55;28.27;;;;;;;;;;4419278;32;20496;-73
2021/12/15 10:02:53;;;;;;;46.35;26.98;;;;;;;;;;4340496;33;20102;-74
2021/12/15 10:11:44;;;;;;;52.92;29.95;;;;;;;;;;4417885;32;20163;-74
2021/12/15 10:17:41;;;;;;;50.33;27.33;;;;;;;;;;4407195;32;20088;-73
2021/12/15 10:20:07;;;;;;;48.17;27.83;;;;;;;;;;4417013;32;20092;-74
2021/12/15 10:22:39;;;;;;;;;;;;;;;;;;4411545;32;20049;-74
2021/12/15 10:25:14;;;;;;;43.72;26.02;;;;;;;;;;4407761;32;19967;-74
2021/12/15 10:28:05;;;;;;;48.78;27.37;;;;;;;;;;4407581;32;20050;-74
2021/12/15 10:30:40;;;;;;;41.05;24.92;;;;;;;;;;4403327;32;20050;-74
2021/12/15 10:33:16;;;;;;;46.10;27.33;;;;;;;;;;4405419;32;20081;-73
2021/12/15 10:35:43;;;;;;;42.92;24.80;;;;;;;;;;4402902;32;20045;-75
2021/12/15 10:38:18;;;;;;;52.80;26.25;;;;;;;;;;4402122;32;20026;-74
2021/12/15 10:40:55;;;;;;;47.58;26.27;;;;;;;;;;4400128;32;20331;-74
2021/12/15 10:43:47;;;;;;;46.58;25.50;;;;;;;;;;4386118;32;20415;-74
2021/12/15 10:49:31;;;;;;;42.80;24.67;;;;;;;;;;4344388;33;20127;-74
2021/12/15 10:52:35;;;;;;;;;;;;;;;;;;;;;
2021/12/15 10:55:30;;;;;;;37.53;22.05;;;;;;;;;;4384207;32;20058;-73
2021/12/15 10:58:11;;;;;;;37.92;21.25;;;;;;;;;;4380990;32;20066;-74
2021/12/15 11:01:05;;;;;;;33.30;19.27;;;;;;;;;;4390899;32;20026;-74
2021/12/15 11:03:38;;;;;;;31.58;16.98;;;;;;;;;;4398552;32;20135;-74
2021/12/15 11:06:36;;;;;;;33.90;17.12;;;;;;;;;;4389223;32;20035;-73
2021/12/15 11:09:44;;;;;;;24.30;12.15;;;;;;;;;;4407349;32;20427;-74
2021/12/15 11:15:46;;;;;;;24.83;11.70;;;;;;;;;;4300328;33;20024;-73
2021/12/15 11:21:47;;;;;;;;;;;;;;;;;;;;;
2021/12/15 11:24:21;;;;;;;19.48;10.43;;;;;;;;;;4315374;33;20025;-74
2021/12/15 11:26:47;;;;;;;28.62;11.02;;;;;;;;;;4361017;32;20030;-73
2021/12/15 11:29:27;;;;;;;;;;;;;;;;;;4376302;32;20074;-75
2021/12/15 11:31:56;;;;;;;20.10;9.25;;;;;;;;;;4376244;32;19962;-74
2021/12/15 11:34:42;;;;;;;17.70;9.27;;;;;;;;;;4375214;32;20028;-74
2021/12/15 11:37:07;;;;;;;22.65;7.55;;;;;;;;;;4376086;32;20061;-75
2021/12/15 11:39:43;;;;;;;;;;;;;;;;;;;;;
2021/12/15 11:42:11;;;;;;;17.42;7.75;;;;;;;;;;4378752;32;19937;-74
2021/12/15 11:44:45;;;;;;;17.62;7.35;;;;;;;;;;4374236;32;20070;-74
2021/12/15 11:47:22;;;;;;;16.55;7.95;;;;;;;;;;4373164;32;20024;-74
2021/12/15 11:49:50;;;;;;;19.80;7.32;;;;;;;;;;4376005;32;20069;-74
2021/12/15 11:52:16;;;;;;;16.95;7.53;;;;;;;;;;4381167;32;20063;-74
2021/12/15 11:54:41;;;;;;;;;;;;;;;;;;4360251;32;20027;-74
2021/12/15 11:57:18;;;;;;;17.08;6.47;;;;;;;;;;4367557;32;19974;-74
2021/12/15 11:59:49;;;;;;;17.45;6.12;;;;;;;;;;4375858;32;20135;-74
2021/12/15 12:02:54;;;;;;;19.77;8.07;;;;;;;;;;4373748;32;20437;-75
2021/12/15 12:05:20;;;;;;;19.65;7.45;;;;;;;;;;4328638;33;20028;-74
2021/12/15 12:07:55;;;;;;;;;;;;;;;;;;4329163;33;20114;-74
2021/12/15 12:10:29;;;;;;;15.93;6.87;;;;;;;;;;4353424;32;19961;-74
2021/12/15 12:13:03;;;;;;;15.15;7.40;;;;;;;;;;4404843;32;20030;-74
2021/12/15 12:15:43;;;;;;;11.60;6.35;;;;;;;;;;4392027;32;20019;-74
2021/12/15 12:18:10;;;;;;;19.08;6.90;;;;;;;;;;4405899;32;20035;-74
2021/12/15 12:20:44;;;;;;;14.50;8.18;;;;;;;;;;4403680;32;20060;-74
2021/12/15 12:23:12;;;;;;;20.08;7.15;;;;;;;;;;4390488;32;20030;-73
2021/12/15 12:25:46;;;;;;;15.02;7.95;;;;;;;;;;4390547;32;20100;-74
2021/12/15 12:28:16;;;;;;;19.83;8.52;;;;;;;;;;4390982;32;20105;-75
2021/12/15 12:30:45;;;;;;;16.35;7.85;;;;;;;;;;4390331;32;20054;-75
2021/12/15 12:33:12;;;;;;;14.93;6.93;;;;;;;;;;4390354;32;20054;-75
2021/12/15 12:35:42;;;;;;;23.50;8.70;;;;;;;;;;4390983;32;20030;-75
2021/12/15 12:39:21;;;;;;;20.33;8.18;;;;;;;;;;4390300;32;20053;-75
2021/12/15 12:41:19;;;;;;;19.02;8.55;;;;;;;;;;4379809;32;20092;-75
2021/12/15 12:43:50;;;;;;;25.20;9.63;;;;;;;;;;4389959;32;20424;-75
2021/12/15 12:46:32;;;;;;;19.52;8.43;;;;;;;;;;4399613;32;20038;-74
2021/12/15 12:58:00;;;;;;;31.27;12.60;;;;;;;;;;4343533;33;20051;-75
2021/12/15 13:00:48;;;;;;;23.62;11.60;;;;;;;;;;4330939;33;20440;-75
2021/12/15 13:03:18;;;;;;;36.13;13.90;;;;;;;;;;4385925;32;20361;-74
2021/12/15 13:05:51;;;;;;;18.42;11.73;;;;;;;;;;4406241;32;20035;-76
2021/12/15 13:08:16;;;;;;;19.90;13.25;;;;;;;;;;4390786;32;20452;-74
2021/12/15 13:10:41;;;;;;;;;;;;;;;;;;4403852;32;20082;-74
2021/12/15 13:13:14;;;;;;;21.05;12.27;;;;;;;;;;4412933;32;19933;-74
2021/12/15 13:15:40;;;;;;;37.03;13.65;;;;;;;;;;4420702;32;20028;-74
2021/12/15 13:18:24;;;;;;;20.27;12.93;;;;;;;;;;4420141;32;20408;-74
2021/12/15 13:20:55;;;;;;;30.30;15.18;;;;;;;;;;4420438;32;20052;-74
2021/12/15 13:23:59;;;;;;;26.17;14.02;;;;;;;;;;4420263;32;20355;-75
2021/12/15 13:29:51;;;;;;;26.08;13.95;;;;;;;;;;4343264;33;20070;-75
2021/12/15 13:32:26;;;;;;;26.83;13.95;;;;;;;;;;4416150;32;20045;-74
2021/12/15 13:34:54;;;;;;;24.23;12.23;;;;;;;;;;4406953;32;20021;-74
2021/12/15 13:40:52;;;;;;;;;;;;;;;;;;;;;
2021/12/15 13:46:49;;;;;;;29.92;13.68;;;;;;;;;;4342958;33;20083;-74
2021/12/15 13:49:40;;;;;;;26.37;12.80;;;;;;;;;;4343648;33;20023;-75
2021/12/15 13:52:31;;;;;;;27.35;12.90;;;;;;;;;;4342723;33;20051;-75
2021/12/15 14:01:36;;;;;;;37.47;16.62;;;;;;;;;;4287714;33;20051;-74
2021/12/15 14:04:09;;;;;;;30.12;14.63;;;;;;;;;;4301397;33;20086;-74
2021/12/15 14:06:34;;;;;;;33.45;16.58;;;;;;;;;;4301523;33;20108;-75
2021/12/15 14:09:18;;;;;;;;;;;;;;;;;;4317446;33;20457;-74
2021/12/15 14:12:03;;;;;;;33.05;16.45;;;;;;;;;;4392370;32;20317;-74
2021/12/15 14:14:44;;;;;;;36.15;15.43;;;;;;;;;;4392880;32;20087;-74
2021/12/15 14:17:26;;;;;;;29.30;16.23;;;;;;;;;;4405911;32;20097;-74
2021/12/15 14:19:57;;;;;;;32.47;16.33;;;;;;;;;;4403431;32;20034;-74
2021/12/15 14:22:54;;;;;;;42.80;17.87;;;;;;;;;;4404854;32;20034;-74
2021/12/15 14:25:35;;;;;;;;;;;;;;;;;;;;;
2021/12/15 14:31:23;;;;;;;40.50;19.60;;;;;;;;;;4370826;32;20110;-75
2021/12/15 14:36:56;;;;;;;29.25;17.40;;;;;;;;;;4377212;32;20042;-75
2021/12/15 14:39:41;;;;;;;30.00;17.87;;;;;;;;;;4376902;32;20077;-74
2021/12/15 14:42:10;;;;;;;31.35;15.98;;;;;;;;;;4376600;32;20069;-75
2021/12/15 14:44:43;;;;;;;31.45;16.42;;;;;;;;;;4376841;32;20050;-74
2021/12/15 14:47:23;;;;;;;;;;;;;;;;;;;;;
2021/12/15 14:56:17;;;;;;;43.25;17.42;;;;;;;;;;4286340;33;20076;-74
2021/12/15 14:59:17;;;;;;;34.60;17.02;;;;;;;;;;4286595;33;20072;-74
2021/12/15 15:01:52;;;;;;;36.05;17.33;;;;;;;;;;4275223;33;20435;-74
2021/12/15 15:04:20;;;;;;;35.67;16.35;;;;;;;;;;4364775;32;20054;-75
2021/12/15 15:07:02;;;;;;;29.27;16.05;;;;;;;;;;4391625;32;20088;-74
2021/12/15 15:09:41;;;;;;;;;;;;;;;;;;;;;
2021/12/15 15:12:26;;;;;;;33.05;16.02;;;;;;;;;;4402989;32;20106;-74
2021/12/15 15:14:55;;;;;;;38.72;14.63;;;;;;;;;;4406988;32;20025;-74
2021/12/15 15:17:40;;;;;;;30.77;14.85;;;;;;;;;;4406659;32;20027;-74
2021/12/15 15:23:10;;;;;;;28.73;14.90;;;;;;;;;;4406309;32;20041;-74
2021/12/15 15:25:37;;;;;;;35.05;12.82;;;;;;;;;;4392436;32;20057;-74
2021/12/15 15:28:07;;;;;;;30.37;12.93;;;;;;;;;;4396668;32;20031;-74
2021/12/15 15:30:39;;;;;;;34.92;13.62;;;;;;;;;;4391128;32;20030;-74
2021/12/15 15:33:13;;;;;;;32.33;12.43;;;;;;;;;;4391622;32;20069;-74
2021/12/15 15:35:45;;;;;;;32.88;12.68;;;;;;;;;;4391495;32;20093;-75
2021/12/15 15:38:15;;;;;;;26.65;12.27;;;;;;;;;;4391366;32;20065;-75
2021/12/15 15:44:28;;;;;;;28.45;12.23;;;;;;;;;;4391638;32;20034;-75
2021/12/15 15:46:59;;;;;;;29.27;11.90;;;;;;;;;;4390242;32;20079;-75
2021/12/15 15:49:24;;;;;;;28.35;10.85;;;;;;;;;;4377616;32;20049;-75
2021/12/15 15:52:09;;;;;;;;;;;;;;;;;;;;;
2021/12/15 15:57:34;;;;;;;19.33;11.52;;;;;;;;;;4390904;32;20075;-75
2021/12/15 16:00:00;;;;;;;30.55;13.15;;;;;;;;;;4376859;32;20447;-75
2021/12/15 16:02:25;;;;;;;;;;;;;;;;;;4399177;32;20102;-75
2021/12/15 16:04:51;;;;;;;29.40;13.70;;;;;;;;;;4405298;32;19957;-74
2021/12/15 16:07:16;;;;;;;;;;;;;;;;;;4406244;32;20084;-74
2021/12/15 16:09:41;;;;;;;33.63;12.40;;;;;;;;;;4391815;32;19937;-76
2021/12/15 16:12:07;;;;;;;;;;;;;;;;;;4420269;32;20216;-75
2021/12/15 16:14:33;;;;;;;21.95;11.88;;;;;;;;;;4407008;32;19964;-74
2021/12/15 16:17:37;;;;;;;23.62;11.45;;;;;;;;;;4421119;32;20026;-74
2021/12/15 16:20:15;;;;;;;25.55;11.23;;;;;;;;;;4420277;32;20029;-74
2021/12/15 16:25:45;;;;;;;23.20;10.43;;;;;;;;;;4421258;32;20040;-74
2021/12/15 16:28:33;;;;;;;18.37;10.70;;;;;;;;;;4420688;32;20105;-74
2021/12/15 16:34:31;;;;;;;24.20;10.98;;;;;;;;;;4357970;32;20043;-75
2021/12/15 16:36:59;;;;;;;23.77;11.35;;;;;;;;;;4358446;33;20093;-75
2021/12/15 16:39:27;;;;;;;24.40;10.77;;;;;;;;;;4376780;32;20030;-75
2021/12/15 16:41:56;;;;;;;26.75;12.07;;;;;;;;;;4390005;32;20053;-75
2021/12/15 16:44:25;;;;;;;23.77;10.20;;;;;;;;;;4389861;32;20057;-74
2021/12/15 16:47:12;;;;;;;28.90;11.27;;;;;;;;;;4390982;32;20023;-74
2021/12/15 16:49:37;;;;;;;;;;;;;;;;;;4390550;32;20031;-74
2021/12/15 16:52:28;;;;;;;23.12;11.23;;;;;;;;;;4376034;32;19954;-74
2021/12/15 16:54:58;;;;;;;21.50;11.10;;;;;;;;;;4390416;32;20114;-74
2021/12/15 16:57:48;;;;;;;29.98;11.15;;;;;;;;;;4390910;32;20027;-74
2021/12/15 17:03:16;;;;;;;27.80;10.77;;;;;;;;;;4348570;32;20071;-74
2021/12/15 17:05:41;;;;;;;;;;;;;;;;;;4390956;32;20381;-74
2021/12/15 17:08:16;;;;;;;22.60;9.85;;;;;;;;;;4390519;32;19977;-74
2021/12/15 17:11:16;;;;;;;25.98;9.35;;;;;;;;;;4389757;32;20134;-74
2021/12/15 17:13:53;;;;;;;23.73;11.57;;;;;;;;;;4393510;32;20030;-74
2021/12/15 17:16:43;;;;;;;24.50;9.88;;;;;;;;;;4405388;32;20014;-74
2021/12/15 17:19:40;;;;;;;;;;;;;;;;;;;;;
2021/12/15 17:22:18;;;;;;;24.98;8.90;;;;;;;;;;4328405;33;20513;-74
2021/12/15 17:24:53;;;;;;;19.75;9.13;;;;;;;;;;4328592;33;20079;-75
2021/12/15 17:31:02;;;;;;;;;;;;;;;;;;;;;
2021/12/15 17:36:33;;;;;;;24.15;11.00;;;;;;;;;;4392963;32;20135;-74
2021/12/15 17:42:27;;;;;;;;;;;;;;;;;;;;;
2021/12/15 17:45:23;;;;;;;29.27;13.80;;;;;;;;;;4392616;32;20034;-74
2021/12/15 17:53:50;;;;;;;26.48;11.02;;;;;;;;;;4405184;32;20423;-75
2021/12/15 17:56:16;;;;;;;28.25;12.55;;;;;;;;;;4405568;32;20081;-75
2021/12/15 17:59:06;;;;;;;;;;;;;;;;;;;;;
2021/12/15 18:02:04;;;;;;;;;;;;;;;;;;;;;
2021/12/15 18:04:30;;;;;;;38.70;18.25;;;;;;;;;;4359725;32;20061;-74
2021/12/15 18:06:55;;;;;;;;;;;;;;;;;;4393003;32;20026;-75
2021/12/15 18:09:31;;;;;;;42.62;17.37;;;;;;;;;;4379137;32;19937;-74
2021/12/15 18:14:45;;;;;;;36.58;16.30;;;;;;;;;;4369034;32;20153;-74
2021/12/15 18:17:10;;;;;;;;;;;;;;;;;;4393026;32;20077;-75
2021/12/15 18:19:36;;;;;;;46.67;20.05;;;;;;;;;;4378977;32;19942;-74
2021/12/15 18:22:18;;;;;;;;;;;;;;;;;;4394084;32;20510;-74
2021/12/15 18:24:44;;;;;;;45.12;19.80;;;;;;;;;;4386996;32;19929;-74
2021/12/15 18:27:09;;;;;;;;;;;;;;;;;;4393749;32;20087;-74
2021/12/15 18:29:45;;;;;;;38.63;16.75;;;;;;;;;;4405378;32;19975;-75
2021/12/15 18:32:12;;;;;;;40.70;18.65;;;;;;;;;;4405184;32;20195;-74
2021/12/15 18:34:46;;;;;;;33.13;16.60;;;;;;;;;;4407236;32;20459;-75
2021/12/15 18:40:39;;;;;;;28.33;14.82;;;;;;;;;;4359581;32;20032;-74
2021/12/15 18:46:24;;;;;;;48.47;19.05;;;;;;;;;;4338978;33;20370;-74
2021/12/15 18:49:01;;;;;;;36.70;17.12;;;;;;;;;;4359778;32;20090;-74
2021/12/15 18:51:27;;;;;;;36.70;16.08;;;;;;;;;;4362686;32;20505;-74
2021/12/15 18:53:52;;;;;;;;;;;;;;;;;;4392649;32;20022;-74
2021/12/15 18:56:19;;;;;;;36.53;15.25;;;;;;;;;;4407278;32;20015;-74
2021/12/15 18:59:04;;;;;;;30.62;13.90;;;;;;;;;;4402001;32;20171;-74
2021/12/15 19:01:34;;;;;;;23.42;15.93;;;;;;;;;;4392563;32;20147;-75
2021/12/15 19:07:03;;;;;;;33.63;14.52;;;;;;;;;;4345301;33;20082;-75
2021/12/15 19:09:30;;;;;;;30.98;16.00;;;;;;;;;;4401133;32;20509;-74
2021/12/15 19:12:28;;;;;;;30.48;15.65;;;;;;;;;;4397786;32;20042;-74
2021/12/15 19:15:00;;;;;;;34.85;14.98;;;;;;;;;;4388569;32;20049;-74
2021/12/15 19:18:04;;;;;;;;;;;;;;;;;;;;;
2021/12/15 19:20:41;;;;;;;28.23;15.35;;;;;;;;;;4395945;32;20035;-75
2021/12/15 19:23:06;;;;;;;;;;;;;;;;;;4397668;32;20439;-75
2021/12/15 19:25:42;;;;;;;35.35;16.67;;;;;;;;;;4383629;32;19948;-74
2021/12/15 19:28:11;;;;;;;34.20;17.35;;;;;;;;;;4385194;32;20033;-75
2021/12/15 19:30:42;;;;;;;40.28;18.23;;;;;;;;;;4395071;32;20031;-74
2021/12/15 19:33:32;;;;;;;36.53;18.37;;;;;;;;;;4387753;32;20130;-74